Time;durP1;ratioP1;P1;durP2;ratioP2;P2;SDS_P1;SDS_P2;PMS_P1;PMS_P2;Temp;Humidity;BMP_temperature;BMP_pressure;BME280_temperature;BME280_humidity;BME280_pressure;Samples;Min_cycle;Max_cycle;Signal;HPM_P1;HPM_P2
2024/01/23 00:02:47;;;;;;;75.95;36.20;;;;;;;-7.29;82.21;98752.16;10324602;28;20087;-57
2024/01/23 00:07:46;;;;;;;75.28;35.75;;;;;;;-7.26;82.38;98772.56;10325662;28;20561;-57
2024/01/23 00:12:45;;;;;;;78.57;38.83;;;;;;;-7.72;83.04;98709.81;10326009;28;20384;-57
2024/01/23 00:17:44;;;;;;;70.38;35.92;;;;;;;-7.63;82.90;98724.06;10324388;28;20076;-57
2024/01/23 00:22:43;;;;;;;67.70;32.38;;;;;;;-7.71;81.65;98694.84;10325374;28;20029;-57
2024/01/23 00:27:42;;;;;;;71.60;36.55;;;;;;;-7.26;81.71;98767.53;10325504;28;20470;-57
2024/01/23 00:32:41;;;;;;;55.45;27.80;;;;;;;-7.27;81.33;98735.53;10325651;28;20024;-57
2024/01/23 00:37:40;;;;;;;54.60;25.95;;;;;;;-7.39;80.96;98755.53;10324527;28;20061;-57
2024/01/23 00:42:39;;;;;;;59.42;26.13;;;;;;;-8.06;82.73;98729.59;10324226;28;20031;-57
2024/01/23 00:47:38;;;;;;;55.03;25.00;;;;;;;-8.45;82.11;98732.91;10324801;28;20021;-57
2024/01/23 00:52:37;;;;;;;103.68;30.35;;;;;;;-8.60;83.75;98761.78;10324411;28;20097;-58
2024/01/23 00:57:36;;;;;;;74.68;32.80;;;;;;;-8.81;82.70;98731.41;10324219;28;20065;-57
2024/01/23 01:02:35;;;;;;;69.68;29.55;;;;;;;-9.13;83.83;98650.56;10323706;28;20521;-57
2024/01/23 01:07:35;;;;;;;67.07;31.73;;;;;;;-8.74;82.46;98705.19;10323918;28;20136;-57
2024/01/23 01:12:34;;;;;;;70.95;34.70;;;;;;;-9.03;82.73;98663.25;10323418;28;20037;-57
2024/01/23 01:17:33;;;;;;;58.72;24.95;;;;;;;-8.54;82.98;98717.91;10322522;28;20103;-57
2024/01/23 01:22:32;;;;;;;54.78;24.13;;;;;;;-8.57;82.20;98746.94;10321951;28;20049;-57
2024/01/23 01:27:31;;;;;;;52.72;24.50;;;;;;;-8.68;81.74;98686.50;10323583;28;20033;-57
2024/01/23 01:32:30;;;;;;;62.40;24.73;;;;;;;-9.31;82.03;98567.78;10323257;28;20037;-57
2024/01/23 01:37:29;;;;;;;64.20;31.30;;;;;;;-8.53;81.98;98712.13;10322524;28;20069;-57
2024/01/23 01:42:28;;;;;;;63.22;29.08;;;;;;;-8.53;81.53;98697.00;10321859;28;20414;-57
2024/01/23 01:47:27;;;;;;;75.82;24.38;;;;;;;-9.18;82.56;98602.41;10325813;28;20034;-57
2024/01/23 01:52:26;;;;;;;65.60;23.33;;;;;;;-8.55;82.21;98710.22;10329255;28;20030;-57
2024/01/23 01:57:27;;;;;;;56.28;26.00;;;;;;;-8.70;83.20;98709.75;10329732;28;20077;-57
2024/01/23 02:02:26;;;;;;;55.80;25.80;;;;;;;-8.55;82.37;98716.13;10310916;28;20081;-57
2024/01/23 02:07:26;;;;;;;72.65;29.80;;;;;;;-9.09;81.52;98613.28;10329242;28;20414;-57
2024/01/23 02:12:24;;;;;;;59.45;25.98;;;;;;;-8.38;81.68;98689.03;10329108;28;20478;-57
2024/01/23 02:17:23;;;;;;;66.82;31.50;;;;;;;-8.61;80.73;98652.66;10329583;28;20109;-57
2024/01/23 02:22:22;;;;;;;76.88;36.90;;;;;;;-8.57;81.96;98632.06;10329031;28;20501;-57
2024/01/23 02:27:21;;;;;;;94.78;40.15;;;;;;;-8.27;81.05;98689.22;10329620;28;20478;-57
2024/01/23 02:32:21;;;;;;;86.60;38.38;;;;;;;-8.36;82.22;98644.75;10329012;28;20476;-57
2024/01/23 02:37:20;;;;;;;79.00;38.00;;;;;;;-8.23;81.85;98645.94;10329495;28;20064;-57
2024/01/23 02:42:19;;;;;;;76.63;37.97;;;;;;;-8.14;80.58;98666.00;10328345;28;20113;-57
2024/01/23 02:47:18;;;;;;;84.05;38.67;;;;;;;-8.28;80.51;98629.56;10328349;28;20087;-57
2024/01/23 02:52:17;;;;;;;92.45;42.05;;;;;;;-8.22;79.90;98601.50;10328756;28;20025;-57
2024/01/23 02:57:16;;;;;;;92.47;42.72;;;;;;;-8.13;80.90;98622.41;10327657;28;20095;-57
2024/01/23 03:02:15;;;;;;;94.78;42.42;;;;;;;-8.15;80.46;98607.94;10327036;28;20107;-57
2024/01/23 03:07:14;;;;;;;99.72;43.10;;;;;;;-8.14;79.79;98579.47;10328611;28;20036;-57
2024/01/23 03:12:23;;;;;;;90.25;43.90;;;;;;;-8.29;78.38;98594.16;10326910;28;20493;-57
2024/01/23 03:17:22;;;;;;;;;;;;;;;-8.61;79.30;98591.41;10328082;28;20064;-57
2024/01/23 03:22:21;;;;;;;52.37;22.37;;;;;;;-8.60;78.76;98578.97;10327698;28;19920;-57
2024/01/23 03:27:21;;;;;;;60.65;26.38;;;;;;;-8.47;78.40;98574.25;10327477;28;21020;-57
2024/01/23 03:32:19;;;;;;;63.33;29.42;;;;;;;-8.79;77.28;98537.88;10324809;28;20108;-57
2024/01/23 03:37:18;;;;;;;64.70;32.13;;;;;;;-9.20;77.90;98469.78;10326350;28;20040;-57
2024/01/23 03:42:17;;;;;;;64.28;30.30;;;;;;;-8.81;78.38;98535.22;10326798;28;20033;-57
2024/01/23 03:47:16;;;;;;;54.88;26.45;;;;;;;-9.50;76.79;98481.47;10326807;28;20030;-57
2024/01/23 03:52:16;;;;;;;46.53;23.25;;;;;;;-9.55;77.18;98497.78;10327190;28;20028;-57
2024/01/23 03:57:15;;;;;;;46.72;22.58;;;;;;;-9.97;77.80;98432.94;10326171;28;20083;-57
2024/01/23 04:02:14;;;;;;;36.05;18.15;;;;;;;-9.89;78.15;98449.59;10325920;28;20836;-57
2024/01/23 04:07:13;;;;;;;48.72;21.25;;;;;;;-10.11;77.72;98375.63;10326512;28;20775;-57
2024/01/23 04:12:12;;;;;;;39.05;19.83;;;;;;;-9.36;77.86;98490.19;10325367;28;20859;-57
2024/01/23 04:17:11;;;;;;;58.53;25.17;;;;;;;-9.43;79.02;98476.22;10324989;28;20572;-57
2024/01/23 04:22:11;;;;;;;79.55;28.50;;;;;;;-9.39;79.63;98494.97;10307743;28;20056;-57
2024/01/23 04:27:10;;;;;;;65.53;27.88;;;;;;;-9.67;79.71;98441.44;10325144;28;20061;-57
2024/01/23 04:32:08;;;;;;;66.65;29.00;;;;;;;-9.18;79.61;98476.72;10324937;28;20033;-57
2024/01/23 04:37:08;;;;;;;67.88;31.60;;;;;;;-9.12;80.05;98486.44;10325142;28;20387;-57
2024/01/23 04:42:07;;;;;;;65.38;29.80;;;;;;;-9.37;79.54;98449.09;10324306;28;20072;-57
2024/01/23 04:47:06;;;;;;;48.17;19.30;;;;;;;-9.55;80.62;98475.16;10324381;28;20029;-57
2024/01/23 04:52:05;;;;;;;51.33;25.08;;;;;;;-9.75;80.69;98441.66;10324801;28;20091;-57
2024/01/23 04:57:04;;;;;;;55.05;27.50;;;;;;;-9.54;80.85;98447.69;10323488;28;20072;-57
2024/01/23 05:02:04;;;;;;;50.65;23.95;;;;;;;-9.33;80.67;98465.34;10323355;28;20085;-57
2024/01/23 05:07:03;;;;;;;78.55;35.00;;;;;;;-10.08;80.58;98354.19;10324112;28;20073;-57
2024/01/23 05:12:03;;;;;;;95.10;41.88;;;;;;;-9.76;80.06;98399.69;10281050;28;20101;-57
2024/01/23 05:17:02;;;;;;;124.43;50.28;;;;;;;-9.43;80.72;98450.22;10282652;28;20069;-57
2024/01/23 05:22:01;;;;;;;144.82;58.40;;;;;;;-9.28;80.08;98465.00;10301865;28;20061;-57
2024/01/23 05:27:01;;;;;;;97.18;41.03;;;;;;;-9.74;78.78;98375.59;10363374;28;20039;-57
2024/01/23 05:32:00;;;;;;;100.70;43.70;;;;;;;-9.47;79.11;98455.72;10363079;28;20056;-57
2024/01/23 05:36:59;;;;;;;77.55;35.25;;;;;;;-9.57;79.42;98466.59;10335117;28;20045;-57
2024/01/23 05:41:58;;;;;;;117.63;53.05;;;;;;;-10.00;79.45;98430.19;10363571;28;20112;-57
2024/01/23 05:46:57;;;;;;;62.28;30.73;;;;;;;-10.18;79.18;98431.91;10348312;28;20024;-58
2024/01/23 05:51:55;;;;;;;60.47;28.20;;;;;;;-10.07;79.80;98478.06;10307345;28;20520;-55
2024/01/23 05:56:54;;;;;;;53.38;26.77;;;;;;;-10.33;80.51;98470.69;10317555;28;20037;-58
2024/01/23 06:01:54;;;;;;;48.03;25.00;;;;;;;-10.26;80.33;98476.41;10321939;28;20033;-57
2024/01/23 06:06:53;;;;;;;53.88;25.58;;;;;;;-9.99;79.75;98477.09;10321625;28;20065;-58
2024/01/23 06:11:52;;;;;;;63.05;28.02;;;;;;;-10.19;80.02;98467.81;10321805;28;20039;-57
2024/01/23 06:16:51;;;;;;;67.72;31.95;;;;;;;-10.23;79.47;98420.59;10322360;28;20065;-58
2024/01/23 06:21:50;;;;;;;80.10;35.08;;;;;;;-9.78;79.57;98486.59;10302619;28;20069;-57
2024/01/23 06:26:49;;;;;;;71.30;35.42;;;;;;;-9.81;79.49;98456.16;10295014;28;20026;-57
2024/01/23 06:31:49;;;;;;;103.70;52.38;;;;;;;-10.20;80.29;98408.31;10322911;28;20491;-58
2024/01/23 06:36:48;;;;;;;76.97;37.65;;;;;;;-9.59;79.76;98521.75;10328937;28;20541;-57
2024/01/23 06:41:49;;;;;;;82.15;37.58;;;;;;;-9.47;78.76;98516.94;10329229;28;20095;-57
2024/01/23 06:46:48;;;;;;;79.15;37.45;;;;;;;-10.13;79.27;98386.41;10327703;28;20065;-57
2024/01/23 06:51:47;;;;;;;102.20;45.97;;;;;;;-8.98;78.87;98532.88;10316429;28;20025;-58
2024/01/23 06:56:46;;;;;;;106.75;51.22;;;;;;;-9.36;78.19;98450.88;10327621;28;20030;-56
2024/01/23 07:01:45;;;;;;;122.93;57.70;;;;;;;-8.83;79.11;98514.09;10324783;28;20125;-56
2024/01/23 07:06:44;;;;;;;121.53;55.65;;;;;;;-8.30;78.06;98542.06;10324467;28;20018;-56
2024/01/23 07:11:43;;;;;;;134.30;61.30;;;;;;;-8.28;78.02;98522.91;10312501;28;20027;-55
2024/01/23 07:16:42;;;;;;;126.45;55.50;;;;;;;-7.74;78.49;98597.94;10321110;28;20025;-56
2024/01/23 07:21:41;;;;;;;137.30;63.28;;;;;;;-7.49;77.86;98585.72;10312660;28;20030;-56
2024/01/23 07:26:40;;;;;;;117.03;54.13;;;;;;;-7.17;77.41;98596.81;10286814;28;20114;-56
2024/01/23 07:31:39;;;;;;;111.95;53.95;;;;;;;-7.05;76.86;98573.34;10286310;28;20041;-56
2024/01/23 07:36:38;;;;;;;;;;;;;;;-6.67;76.33;98603.22;10316791;28;20107;-56
2024/01/23 07:41:37;;;;;;;87.47;44.03;;;;;;;-6.60;75.90;98588.69;10320743;28;20610;-57
2024/01/23 07:46:35;;;;;;;70.07;34.92;;;;;;;-6.47;77.04;98577.94;10312718;28;20463;-57
2024/01/23 07:51:50;;;;;;;;;;;;;;;-5.96;75.77;98613.06;10327037;28;20033;-57
2024/01/23 07:56:52;;;;;;;66.47;33.67;;;;;;;-5.74;75.25;98615.56;10314976;28;19956;-57
2024/01/23 08:01:52;;;;;;;101.47;49.60;;;;;;;-6.26;73.70;98619.13;10321429;28;20154;-57
2024/01/23 08:06:52;;;;;;;52.70;30.77;;;;;;;-6.20;74.07;98631.34;10310273;28;20073;-57
2024/01/23 08:11:52;;;;;;;50.80;28.23;;;;;;;-6.21;73.77;98604.34;10320790;28;20100;-57
2024/01/23 08:16:52;;;;;;;59.25;27.58;;;;;;;-7.07;74.96;98421.88;10316366;28;20903;-57
2024/01/23 08:21:51;;;;;;;41.50;20.38;;;;;;;-5.90;74.53;98597.47;10316636;28;20072;-57
2024/01/23 08:26:52;;;;;;;;;;;;;;;-5.62;74.32;98656.06;10322055;28;20029;-57
2024/01/23 08:31:51;;;;;;;43.45;21.85;;;;;;;-5.31;74.11;98655.84;10321941;28;19952;-57
2024/01/23 08:36:50;;;;;;;;;;;;;;;-4.98;74.80;98647.38;10323056;28;20025;-57
2024/01/23 08:41:48;;;;;;;48.50;23.70;;;;;;;-4.94;73.13;98600.38;10324019;28;20008;-57
2024/01/23 08:46:48;;;;;;;;;;;;;;;-4.50;74.17;98692.22;10322613;28;20041;-57
2024/01/23 08:51:47;;;;;;;48.93;25.43;;;;;;;-4.76;71.20;98611.84;10322911;28;20733;-58
2024/01/23 08:56:46;;;;;;;45.33;24.17;;;;;;;-4.28;72.62;98656.69;10318463;28;20855;-57
2024/01/23 09:01:45;;;;;;;44.33;22.70;;;;;;;-3.95;71.17;98669.97;10322640;28;20079;-57
2024/01/23 09:06:44;;;;;;;34.58;20.13;;;;;;;-3.77;71.25;98633.19;10322016;28;20037;-57
2024/01/23 09:11:43;;;;;;;34.55;18.23;;;;;;;-3.33;70.32;98632.81;10320667;28;20414;-57
2024/01/23 09:16:42;;;;;;;39.53;20.45;;;;;;;-3.11;70.34;98624.06;10314663;28;20140;-57
2024/01/23 09:21:41;;;;;;;44.45;24.00;;;;;;;-3.08;68.56;98606.53;10319623;28;20040;-57
2024/01/23 09:26:40;;;;;;;47.65;23.35;;;;;;;-2.96;68.26;98597.16;10318208;28;20033;-57
2024/01/23 09:31:46;;;;;;;46.42;24.33;;;;;;;-2.97;68.39;98552.25;10317966;28;20044;-57
2024/01/23 09:36:45;;;;;;;46.78;25.23;;;;;;;-2.37;67.14;98596.69;10305142;28;20474;-56
2024/01/23 09:41:46;;;;;;;;;;;;;;;-2.25;66.10;98586.41;10317610;28;20494;-57
2024/01/23 09:46:50;;;;;;;45.88;25.33;;;;;;;-2.67;66.98;98564.25;10313238;28;20620;-57
2024/01/23 09:51:49;;;;;;;38.22;20.27;;;;;;;-3.29;67.36;98516.28;10281184;28;20080;-57
2024/01/23 09:56:48;;;;;;;49.58;26.05;;;;;;;-3.30;68.06;98494.19;10289252;28;20143;-57
2024/01/23 10:01:47;;;;;;;41.55;21.85;;;;;;;-3.16;68.37;98544.19;10289508;28;20044;-57
2024/01/23 10:06:46;;;;;;;;;;;;;;;-2.78;67.79;98566.09;10298178;28;20140;-57
2024/01/23 10:11:45;;;;;;;51.08;26.13;;;;;;;-2.64;68.54;98544.13;10297483;28;19927;-57
2024/01/23 10:16:47;;;;;;;45.72;24.50;;;;;;;-2.37;67.72;98547.53;10296374;28;20045;-57
2024/01/23 10:21:46;;;;;;;52.80;28.30;;;;;;;-2.80;67.31;98483.88;10302867;28;20693;-57
2024/01/23 10:26:46;;;;;;;48.50;26.13;;;;;;;-2.39;66.91;98536.38;10295351;28;20486;-56
2024/01/23 10:31:46;;;;;;;46.90;26.42;;;;;;;-2.33;67.51;98522.41;10303008;28;20164;-56
2024/01/23 10:36:45;;;;;;;46.80;25.25;;;;;;;-2.53;66.71;98422.03;10329368;28;20111;-57
2024/01/23 10:41:44;;;;;;;45.40;23.00;;;;;;;-2.57;66.07;98415.03;10308243;28;20025;-56
2024/01/23 10:46:46;;;;;;;;;;;;;;;-2.24;66.07;98505.94;10302661;28;21037;-56
2024/01/23 10:51:48;;;;;;;43.10;22.13;;;;;;;-1.90;65.86;98485.97;10301462;28;20004;-56
2024/01/23 10:56:53;;;;;;;36.65;19.45;;;;;;;-2.18;64.56;98438.53;10301860;28;20136;-56
2024/01/23 11:01:58;;;;;;;41.38;21.67;;;;;;;-1.71;64.52;98439.59;10301672;28;20124;-57
2024/01/23 11:07:03;;;;;;;35.55;19.70;;;;;;;-1.29;62.69;98465.75;10302185;28;21435;-56
2024/01/23 11:12:36;;;;;;;35.03;19.90;;;;;;;-1.20;61.65;98471.34;10299829;28;20117;-56
2024/01/23 11:17:35;;;;;;;30.95;17.73;;;;;;;-1.81;60.08;98427.13;10303784;28;20052;-57
2024/01/23 11:22:35;;;;;;;36.03;18.85;;;;;;;-1.69;60.12;98453.28;10300487;28;20044;-57
2024/01/23 11:27:37;;;;;;;37.28;20.27;;;;;;;-1.62;60.74;98431.63;10313151;28;20112;-56
2024/01/23 11:32:36;;;;;;;34.17;17.85;;;;;;;-1.60;60.88;98432.59;10322435;28;20570;-56
2024/01/23 11:37:42;;;;;;;28.85;16.75;;;;;;;-1.50;61.78;98465.41;10327133;28;20674;-56
2024/01/23 11:42:41;;;;;;;25.92;13.75;;;;;;;-1.91;62.11;98406.25;10308417;28;20131;-57
2024/01/23 11:47:41;;;;;;;31.13;16.73;;;;;;;-1.28;61.60;98491.31;10307744;28;20112;-57
2024/01/23 11:52:48;;;;;;;33.08;18.15;;;;;;;-0.98;62.05;98478.53;10304995;28;20119;-56
2024/01/23 11:57:53;;;;;;;32.28;15.57;;;;;;;-1.27;61.59;98368.28;10316268;28;20546;-56
2024/01/23 12:02:52;;;;;;;25.83;14.20;;;;;;;-0.35;61.00;98468.34;10288421;28;20081;-56
2024/01/23 12:07:51;;;;;;;34.20;17.17;;;;;;;-0.31;60.88;98429.47;10294446;28;20076;-56
2024/01/23 12:12:55;;;;;;;27.48;16.42;;;;;;;0.36;59.50;98506.03;10301476;28;20061;-56
2024/01/23 12:17:54;;;;;;;30.27;16.05;;;;;;;0.41;59.32;98502.06;10286456;28;20113;-56
2024/01/23 12:22:53;;;;;;;25.75;14.52;;;;;;;0.59;58.54;98489.34;10283118;28;20160;-56
2024/01/23 12:27:52;;;;;;;28.02;16.08;;;;;;;0.65;57.44;98487.09;10256466;28;20044;-56
2024/01/23 12:32:51;;;;;;;26.25;15.40;;;;;;;0.90;57.53;98500.28;10260644;28;20906;-55
2024/01/23 12:37:51;;;;;;;28.73;16.58;;;;;;;1.14;56.04;98517.59;10268121;28;20863;-56
2024/01/23 12:42:52;;;;;;;27.00;15.02;;;;;;;1.28;55.36;98524.25;10258888;28;20539;-55
2024/01/23 12:47:52;;;;;;;27.38;16.38;;;;;;;0.86;53.87;98447.25;10260484;28;20474;-54
2024/01/23 12:52:53;;;;;;;39.05;20.02;;;;;;;1.49;55.71;98533.75;10284594;28;20121;-54
2024/01/23 12:57:52;;;;;;;37.85;22.33;;;;;;;1.48;56.18;98514.97;10291799;28;20132;-55
2024/01/23 13:02:52;;;;;;;35.50;20.13;;;;;;;1.63;54.60;98545.50;10291608;28;20123;-54
2024/01/23 13:07:52;;;;;;;36.90;20.45;;;;;;;1.49;55.53;98549.09;10318960;28;20172;-54
2024/01/23 13:12:52;;;;;;;39.97;23.65;;;;;;;1.09;55.08;98490.94;10324417;28;20654;-54
2024/01/23 13:17:52;;;;;;;37.53;23.05;;;;;;;1.14;55.23;98521.84;10317532;28;20136;-54
2024/01/23 13:22:51;;;;;;;41.97;24.67;;;;;;;1.41;56.24;98552.97;10313234;28;20264;-54
2024/01/23 13:27:50;;;;;;;40.10;22.92;;;;;;;1.34;55.92;98551.78;10311540;28;20116;-54
2024/01/23 13:32:55;;;;;;;36.33;20.73;;;;;;;1.42;56.58;98560.72;10304511;28;20041;-54
2024/01/23 13:37:57;;;;;;;35.65;23.00;;;;;;;1.54;57.24;98561.28;10316720;28;20120;-56
2024/01/23 13:42:56;;;;;;;37.42;22.17;;;;;;;1.65;55.39;98566.91;10310262;28;20123;-56
2024/01/23 13:47:56;;;;;;;46.88;25.13;;;;;;;1.23;56.54;98499.28;10323124;28;20412;-56
2024/01/23 13:52:55;;;;;;;44.33;25.95;;;;;;;1.35;56.53;98516.88;10329640;28;20120;-56
2024/01/23 13:57:54;;;;;;;54.40;29.95;;;;;;;1.33;56.13;98479.31;10314934;28;20625;-57
2024/01/23 14:02:53;;;;;;;49.47;31.08;;;;;;;1.45;57.43;98502.03;10313303;28;20058;-57
2024/01/23 14:07:55;;;;;;;43.60;27.33;;;;;;;1.82;55.87;98559.16;10311541;28;20405;-56
2024/01/23 14:12:54;;;;;;;51.03;30.48;;;;;;;1.70;56.80;98524.50;10313662;28;20140;-56
2024/01/23 14:17:53;;;;;;;47.78;27.30;;;;;;;1.38;57.11;98497.44;10305282;28;20031;-56
2024/01/23 14:22:53;;;;;;;47.28;26.67;;;;;;;1.47;56.99;98514.91;10320143;28;20037;-56
2024/01/23 14:27:53;;;;;;;37.08;22.55;;;;;;;1.43;57.54;98529.19;10304928;28;20190;-57
2024/01/23 14:32:52;;;;;;;50.25;27.15;;;;;;;1.08;56.52;98494.28;10310080;28;20125;-56
2024/01/23 14:37:51;;;;;;;48.80;30.25;;;;;;;0.71;55.83;98486.50;10317287;28;20029;-55
2024/01/23 14:42:51;;;;;;;48.88;25.30;;;;;;;0.66;55.72;98556.16;10322037;28;20817;-55
2024/01/23 14:47:50;;;;;;;41.45;23.73;;;;;;;0.51;56.35;98563.00;10308604;28;22018;-55
2024/01/23 14:52:49;;;;;;;73.63;37.60;;;;;;;0.10;56.90;98533.69;10306329;28;20508;-56
2024/01/23 14:57:51;;;;;;;44.78;24.80;;;;;;;0.23;56.75;98559.03;10308152;28;20555;-55
2024/01/23 15:02:50;;;;;;;49.67;27.73;;;;;;;0.37;57.93;98567.41;10308010;28;20136;-55
2024/01/23 15:07:49;;;;;;;36.60;21.48;;;;;;;0.26;57.86;98571.06;10307379;28;20049;-56
2024/01/23 15:12:48;;;;;;;36.92;20.88;;;;;;;-0.29;58.53;98469.53;10344045;28;20061;-56
2024/01/23 15:17:47;;;;;;;41.03;24.58;;;;;;;0.04;58.66;98536.75;10339042;28;20036;-54
2024/01/23 15:22:46;;;;;;;90.63;46.47;;;;;;;0.01;59.71;98548.50;10340584;28;20468;-55
2024/01/23 15:27:45;;;;;;;73.30;43.10;;;;;;;0.10;60.39;98568.50;10334612;28;20025;-55
2024/01/23 15:32:44;;;;;;;76.22;42.90;;;;;;;0.03;61.06;98567.28;10342881;28;20033;-55
2024/01/23 15:37:44;;;;;;;83.95;46.50;;;;;;;-0.04;60.83;98577.97;10347642;28;20036;-56
2024/01/23 15:42:43;;;;;;;74.75;43.70;;;;;;;-0.24;61.04;98566.72;10315356;28;20463;-55
2024/01/23 15:47:44;;;;;;;81.00;46.42;;;;;;;-0.53;61.95;98555.78;10344390;28;20064;-55
2024/01/23 15:52:43;;;;;;;79.60;45.15;;;;;;;-0.51;61.92;98578.81;10325960;28;20542;-56
2024/01/23 15:57:43;;;;;;;88.70;46.75;;;;;;;-0.53;62.53;98594.03;10308821;28;20146;-56
2024/01/23 16:02:42;;;;;;;77.10;47.67;;;;;;;-0.50;62.58;98601.84;10325422;28;20811;-55
2024/01/23 16:07:41;;;;;;;125.38;71.00;;;;;;;-0.66;63.10;98595.00;10319330;28;20914;-55
2024/01/23 16:12:40;;;;;;;133.25;80.70;;;;;;;-0.97;63.91;98556.72;10325994;28;20045;-55
2024/01/23 16:17:39;;;;;;;108.40;61.90;;;;;;;-0.85;64.08;98571.81;10325746;28;20103;-56
2024/01/23 16:22:38;;;;;;;104.35;57.28;;;;;;;-0.89;64.74;98578.41;10325554;28;20462;-55
2024/01/23 16:27:40;;;;;;;101.90;60.35;;;;;;;-1.01;64.71;98554.78;10325243;28;20108;-55
2024/01/23 16:32:40;;;;;;;111.68;63.05;;;;;;;-0.52;65.46;98621.28;10325509;28;20073;-54
2024/01/23 16:37:39;;;;;;;123.43;70.63;;;;;;;-0.60;65.88;98600.44;10324847;28;20072;-56
2024/01/23 16:42:38;;;;;;;133.18;71.20;;;;;;;-0.75;66.13;98578.31;10306723;28;20098;-56
2024/01/23 16:47:37;;;;;;;116.07;64.20;;;;;;;-0.55;65.70;98617.69;10307178;28;20065;-54
2024/01/23 16:52:36;;;;;;;111.82;62.08;;;;;;;-0.98;65.65;98546.44;10323914;28;20029;-55
2024/01/23 16:57:35;;;;;;;111.85;65.50;;;;;;;-0.60;65.81;98619.97;10306685;28;20057;-55
2024/01/23 17:02:34;;;;;;;124.47;69.82;;;;;;;-0.49;66.33;98639.28;10324163;28;20053;-56
2024/01/23 17:07:33;;;;;;;122.00;69.43;;;;;;;-1.24;66.33;98531.41;10323805;28;20403;-55
2024/01/23 17:12:32;;;;;;;130.50;72.90;;;;;;;-0.72;65.99;98635.44;10324069;28;20029;-55
2024/01/23 17:17:31;;;;;;;147.80;87.70;;;;;;;-1.31;67.14;98576.81;10323504;28;20048;-55
2024/01/23 17:22:32;;;;;;;171.98;95.55;;;;;;;-1.10;67.87;98645.94;10323284;28;20819;-56
2024/01/23 17:27:31;;;;;;;193.20;110.07;;;;;;;-0.91;67.67;98668.28;10323383;28;20076;-56
2024/01/23 17:32:31;;;;;;;210.35;114.32;;;;;;;-0.92;68.93;98667.41;10339930;28;20065;-56
2024/01/23 17:37:30;;;;;;;214.05;120.45;;;;;;;-0.81;69.00;98656.19;10324101;28;20057;-56
2024/01/23 17:42:29;;;;;;;187.57;104.93;;;;;;;-0.69;69.11;98681.50;10323978;28;20043;-55
2024/01/23 17:47:28;;;;;;;160.77;92.75;;;;;;;-0.65;69.57;98662.13;10322145;28;20039;-55
2024/01/23 17:52:28;;;;;;;137.45;76.97;;;;;;;-0.53;68.69;98693.47;10322743;28;20065;-56
2024/01/23 17:57:27;;;;;;;118.18;65.85;;;;;;;-0.91;69.16;98596.94;10305507;28;20482;-56
2024/01/23 18:02:26;;;;;;;108.60;64.38;;;;;;;-1.31;68.43;98528.44;10323317;28;20509;-55
2024/01/23 18:07:25;;;;;;;112.35;67.28;;;;;;;-0.72;68.24;98620.16;10323477;28;20415;-56
2024/01/23 18:12:24;;;;;;;134.05;78.13;;;;;;;-0.22;69.14;98708.81;10323260;28;20072;-56
2024/01/23 18:17:23;;;;;;;160.52;90.25;;;;;;;-0.31;69.07;98679.38;10322761;28;20076;-55
2024/01/23 18:22:22;;;;;;;184.32;109.25;;;;;;;-0.09;68.76;98701.84;10308963;28;20026;-56
2024/01/23 18:27:21;;;;;;;163.10;90.43;;;;;;;0.05;68.44;98704.41;10298377;28;20043;-55
2024/01/23 18:32:21;;;;;;;166.15;99.22;;;;;;;-0.03;68.70;98708.19;10330204;28;20096;-55
2024/01/23 18:37:21;;;;;;;210.35;113.32;;;;;;;-0.16;69.11;98677.66;10329930;28;20064;-55
2024/01/23 18:42:21;;;;;;;187.68;111.47;;;;;;;-0.87;68.24;98537.72;10328980;28;20132;-55
2024/01/23 18:47:21;;;;;;;161.38;94.95;;;;;;;0.09;68.66;98718.19;10311232;28;20545;-54
2024/01/23 18:52:20;;;;;;;133.02;79.53;;;;;;;-0.32;67.72;98662.31;10329025;28;20063;-54
2024/01/23 18:57:19;;;;;;;138.65;80.22;;;;;;;0.02;69.01;98722.06;10329919;28;20029;-56
2024/01/23 19:02:18;;;;;;;71.18;43.85;;;;;;;0.21;67.54;98718.00;10329222;28;20076;-58
2024/01/23 19:07:17;;;;;;;72.07;43.78;;;;;;;-0.18;68.36;98666.53;10329530;28;20110;-56
2024/01/23 19:12:16;;;;;;;102.07;56.72;;;;;;;-0.10;68.24;98695.88;10329350;28;20033;-56
2024/01/23 19:17:15;;;;;;;116.55;63.55;;;;;;;-0.37;69.53;98679.91;10327966;28;20069;-56
2024/01/23 19:22:15;;;;;;;94.78;53.08;;;;;;;-0.01;69.60;98711.72;10328340;28;20076;-55
2024/01/23 19:27:14;;;;;;;70.05;43.30;;;;;;;0.01;69.45;98743.28;10328532;28;20068;-55
2024/01/23 19:32:13;;;;;;;77.35;45.28;;;;;;;0.02;69.39;98736.50;10328803;28;20065;-55
2024/01/23 19:37:12;;;;;;;78.65;43.90;;;;;;;0.05;69.66;98727.38;10327463;28;20079;-54
2024/01/23 19:42:11;;;;;;;83.72;48.95;;;;;;;0.02;69.86;98718.66;10326122;28;20091;-55
2024/01/23 19:47:10;;;;;;;91.88;52.97;;;;;;;0.13;70.34;98740.56;10327755;28;20121;-55
2024/01/23 19:52:09;;;;;;;102.07;59.00;;;;;;;-0.03;70.31;98748.13;10327440;28;20065;-54
2024/01/23 19:57:09;;;;;;;103.88;59.17;;;;;;;0.16;70.24;98755.16;10327352;28;20502;-55
2024/01/23 20:02:08;;;;;;;109.82;61.22;;;;;;;0.22;70.46;98750.41;10326563;28;20121;-55
2024/01/23 20:07:07;;;;;;;122.82;68.35;;;;;;;0.20;70.16;98735.00;10327029;28;20119;-55
2024/01/23 20:12:10;;;;;;;103.20;55.67;;;;;;;0.15;70.23;98790.00;10327457;28;20921;-55
2024/01/23 20:17:08;;;;;;;76.35;44.78;;;;;;;0.09;70.16;98776.03;10326953;28;20061;-54
2024/01/23 20:22:07;;;;;;;181.25;77.80;;;;;;;-0.21;69.45;98747.97;10326510;28;20029;-55
2024/01/23 20:27:06;;;;;;;65.57;36.08;;;;;;;0.11;69.37;98777.00;10326370;28;20829;-55
2024/01/23 20:32:06;;;;;;;60.22;32.85;;;;;;;0.02;69.75;98742.50;10326324;28;20036;-55
2024/01/23 20:37:05;;;;;;;137.07;56.80;;;;;;;0.03;68.96;98774.88;10325240;28;20053;-55
2024/01/23 20:42:11;;;;;;;79.82;44.75;;;;;;;0.02;67.82;98779.88;10325601;28;20035;-56
2024/01/23 20:47:11;;;;;;;56.80;31.58;;;;;;;-0.65;67.21;98764.09;10325539;28;20073;-56
2024/01/23 20:52:09;;;;;;;78.82;40.47;;;;;;;-0.83;68.09;98741.84;10324447;28;20064;-56
2024/01/23 20:57:08;;;;;;;62.22;38.33;;;;;;;-0.84;69.38;98775.78;10324979;28;20052;-56
2024/01/23 21:02:07;;;;;;;87.05;44.67;;;;;;;-0.59;69.41;98765.34;10325706;28;20052;-55
2024/01/23 21:07:07;;;;;;;54.45;32.50;;;;;;;-0.59;68.78;98770.44;10325136;28;20042;-55
2024/01/23 21:12:06;;;;;;;;;;;;;;;-0.37;69.41;98803.19;10324713;28;20077;-56
2024/01/23 21:17:05;;;;;;;50.97;30.00;;;;;;;-0.47;68.94;98805.97;10324991;28;20359;-55
2024/01/23 21:22:04;;;;;;;52.38;31.10;;;;;;;-0.68;69.49;98775.00;10324569;28;20602;-55
2024/01/23 21:27:04;;;;;;;51.58;29.38;;;;;;;-0.70;68.90;98778.25;10322922;28;20075;-54
2024/01/23 21:32:03;;;;;;;55.05;32.15;;;;;;;-0.96;68.60;98751.22;10323565;28;20065;-55
2024/01/23 21:37:03;;;;;;;61.03;35.80;;;;;;;-1.29;68.70;98718.69;10324013;28;20460;-56
2024/01/23 21:42:02;;;;;;;66.13;37.92;;;;;;;-1.12;69.43;98779.97;10324836;28;20076;-56
2024/01/23 21:47:01;;;;;;;69.75;41.70;;;;;;;-0.85;69.92;98816.44;10324269;28;20065;-56
2024/01/23 21:52:00;;;;;;;66.13;38.50;;;;;;;-0.95;70.30;98816.66;10324211;28;20099;-56
2024/01/23 21:56:59;;;;;;;62.65;37.38;;;;;;;-1.10;70.00;98792.00;10323910;28;20057;-56
2024/01/23 22:01:58;;;;;;;68.97;36.83;;;;;;;-0.89;70.30;98811.94;10324197;28;20445;-56
2024/01/23 22:06:57;;;;;;;63.75;37.03;;;;;;;-0.78;71.44;98838.09;10332391;28;20510;-56
2024/01/23 22:11:56;;;;;;;89.38;46.05;;;;;;;-0.78;71.77;98827.91;10332073;28;20818;-56
2024/01/23 22:16:55;;;;;;;85.25;48.13;;;;;;;-0.68;71.51;98820.88;10313483;28;20911;-56
2024/01/23 22:21:54;;;;;;;96.68;54.63;;;;;;;-0.61;71.69;98820.44;10321509;28;20030;-56
2024/01/23 22:26:53;;;;;;;112.53;61.70;;;;;;;-1.01;71.37;98763.66;10290222;28;20030;-56
2024/01/23 22:31:52;;;;;;;116.45;63.35;;;;;;;-0.72;70.56;98828.25;10290372;28;20033;-56
2024/01/23 22:36:51;;;;;;;136.55;72.78;;;;;;;-1.15;71.80;98782.34;10290010;28;20125;-56
2024/01/23 22:41:50;;;;;;;131.68;70.05;;;;;;;-0.98;71.88;98830.09;10290216;28;20036;-56
2024/01/23 22:46:49;;;;;;;142.55;71.43;;;;;;;-1.16;72.28;98813.69;10289782;28;20113;-56